首页
METAR-TAF:

METAR-TAF

机场 :

英迪拉·甘地国际机场

新德里, 印度

纬度: 28-34N, 经度: 077-07E, 海拔: 220米

当前天气观测

该预报发布于22分钟前的08:30 UTC
风速7节,风向西转西北
温度 41°C
湿度 18%
气压 1007 hPa
能見度: 3000

METAR: VIDP 230830Z 30007KT 3000 HZ NSC 41/12 Q1007 NOSIG

时间: 14:22 (08:52 UTC)

预报

该预报发布于52分钟前的08:00 UTC
预报有效从23日的 09点(UTC)到 23日的 18点(UTC)
风速6节,风向西北
能見度: 3000
成为
从 23日的 08点(UTC)到 23日的 12点(UTC)
风速8节,风向西转西北,有时为18节阵风
能見度: 2500
少量云层高于4000英尺
散云层高于10000英尺
浮尘
成为
从 23日的 15点(UTC)到 23日的 17点(UTC)
能見度: 3000
少量云层高于10000英尺

TAF: VIDP 230800Z 2309/2318 32006KT 3000 HZ NSC BECMG 2308/2312 29008G18KT 2500 DU FEW040 SCT100 BECMG 2315/2317 3000 HZ FEW100

超过4000个机场的气象观测和天气预报(METAR&TAF报告)。

可查询的气象台以黄色和红色小点在地图上表示。

将鼠标移到小点上方,可查看气象台名称。

然后点击查看天气观测和预报。

如需切换地图:点击带黑十字的绿色按钮放大地图;点击带横线的绿色按钮缩小地图;或者点击绿色箭头查看邻近地区的地图。


METAR-TAF: